sensor_id;sensor_type;location;lat;lon;timestamp;pressure;altitude;pressure_sealevel;temperature;humidity
18987;BME280;9627;59.236;18.142;2023-04-01T00:04:56;100306.41;;;-4.98;100.00
18987;BME280;9627;59.236;18.142;2023-04-01T00:07:23;100301.50;;;-5.02;100.00
18987;BME280;9627;59.236;18.142;2023-04-01T00:09:50;100302.03;;;-4.97;100.00
18987;BME280;9627;59.236;18.142;2023-04-01T00:12:17;100302.97;;;-4.98;100.00
18987;BME280;9627;59.236;18.142;2023-04-01T00:14:44;100307.22;;;-4.97;100.00
18987;BME280;9627;59.236;18.142;2023-04-01T00:17:11;100307.03;;;-4.94;100.00
18987;BME280;9627;59.236;18.142;2023-04-01T00:19:38;100308.50;;;-4.90;100.00
18987;BME280;9627;59.236;18.142;2023-04-01T00:22:07;100309.06;;;-4.99;100.00
18987;BME280;9627;59.236;18.142;2023-04-01T00:24:36;100311.66;;;-4.99;100.00
18987;BME280;9627;59.236;18.142;2023-04-01T00:27:03;100316.41;;;-5.06;100.00
18987;BME280;9627;59.236;18.142;2023-04-01T00:29:30;100317.94;;;-5.03;100.00
18987;BME280;9627;59.236;18.142;2023-04-01T00:31:57;100318.78;;;-5.03;100.00
18987;BME280;9627;59.236;18.142;2023-04-01T00:34:24;100315.50;;;-5.19;100.00
18987;BME280;9627;59.236;18.142;2023-04-01T00:36:52;100312.50;;;-5.13;100.00
18987;BME280;9627;59.236;18.142;2023-04-01T00:39:21;100314.81;;;-5.08;100.00
18987;BME280;9627;59.236;18.142;2023-04-01T00:41:48;100320.53;;;-5.03;100.00
18987;BME280;9627;59.236;18.142;2023-04-01T00:44:16;100321.19;;;-5.00;100.00
18987;BME280;9627;59.236;18.142;2023-04-01T00:46:43;100313.91;;;-5.07;100.00
18987;BME280;9627;59.236;18.142;2023-04-01T00:49:10;100322.31;;;-5.04;100.00
18987;BME280;9627;59.236;18.142;2023-04-01T00:51:38;100313.81;;;-5.06;100.00
18987;BME280;9627;59.236;18.142;2023-04-01T00:54:06;100316.50;;;-5.07;100.00
18987;BME280;9627;59.236;18.142;2023-04-01T00:56:35;100309.22;;;-5.15;100.00
18987;BME280;9627;59.236;18.142;2023-04-01T00:59:05;100316.13;;;-5.15;100.00
18987;BME280;9627;59.236;18.142;2023-04-01T01:01:33;100312.06;;;-5.19;100.00
18987;BME280;9627;59.236;18.142;2023-04-01T01:04:01;100312.25;;;-5.22;100.00
18987;BME280;9627;59.236;18.142;2023-04-01T01:06:32;100312.81;;;-5.17;100.00
18987;BME280;9627;59.236;18.142;2023-04-01T01:09:10;100316.41;;;-5.20;100.00
18987;BME280;9627;59.236;18.142;2023-04-01T01:11:43;100312.72;;;-5.16;100.00
18987;BME280;9627;59.236;18.142;2023-04-01T01:14:18;100319.84;;;-5.19;100.00
18987;BME280;9627;59.236;18.142;2023-04-01T01:16:50;100322.47;;;-5.07;100.00
18987;BME280;9627;59.236;18.142;2023-04-01T01:19:27;100321.56;;;-5.06;100.00
18987;BME280;9627;59.236;18.142;2023-04-01T01:24:40;100327.56;;;-5.05;100.00
18987;BME280;9627;59.236;18.142;2023-04-01T01:27:12;100323.44;;;-5.08;100.00
18987;BME280;9627;59.236;18.142;2023-04-01T01:32:52;100328.88;;;-4.98;100.00
18987;BME280;9627;59.236;18.142;2023-04-01T01:35:26;100330.88;;;-5.03;100.00
18987;BME280;9627;59.236;18.142;2023-04-01T01:37:56;100321.84;;;-5.10;100.00
18987;BME280;9627;59.236;18.142;2023-04-01T01:40:25;100325.19;;;-5.08;100.00
18987;BME280;9627;59.236;18.142;2023-04-01T01:42:55;100316.41;;;-5.06;100.00
18987;BME280;9627;59.236;18.142;2023-04-01T01:45:23;100316.69;;;-5.10;100.00
18987;BME280;9627;59.236;18.142;2023-04-01T01:47:52;100327.66;;;-5.07;100.00
18987;BME280;9627;59.236;18.142;2023-04-01T01:50:19;100326.66;;;-5.04;100.00
18987;BME280;9627;59.236;18.142;2023-04-01T01:52:48;100328.50;;;-5.06;100.00
18987;BME280;9627;59.236;18.142;2023-04-01T01:55:26;100326.19;;;-5.11;100.00
18987;BME280;9627;59.236;18.142;2023-04-01T01:57:54;100331.72;;;-5.03;100.00
18987;BME280;9627;59.236;18.142;2023-04-01T02:00:22;100334.53;;;-5.06;100.00
18987;BME280;9627;59.236;18.142;2023-04-01T02:02:50;100333.09;;;-4.97;100.00
18987;BME280;9627;59.236;18.142;2023-04-01T02:05:19;100332.47;;;-5.01;100.00
18987;BME280;9627;59.236;18.142;2023-04-01T02:07:48;100342.75;;;-5.13;100.00
18987;BME280;9627;59.236;18.142;2023-04-01T02:10:19;100350.41;;;-5.12;100.00
18987;BME280;9627;59.236;18.142;2023-04-01T02:12:47;100339.44;;;-5.15;100.00
18987;BME280;9627;59.236;18.142;2023-04-01T02:15:16;100334.25;;;-5.15;100.00
18987;BME280;9627;59.236;18.142;2023-04-01T02:17:44;100337.59;;;-5.13;100.00
18987;BME280;9627;59.236;18.142;2023-04-01T02:20:13;100336.47;;;-5.23;100.00
18987;BME280;9627;59.236;18.142;2023-04-01T02:22:43;100339.44;;;-5.15;100.00
18987;BME280;9627;59.236;18.142;2023-04-01T02:25:13;100333.69;;;-5.06;100.00
18987;BME280;9627;59.236;18.142;2023-04-01T02:27:41;100334.78;;;-5.10;100.00
18987;BME280;9627;59.236;18.142;2023-04-01T02:30:10;100330.34;;;-5.08;100.00
18987;BME280;9627;59.236;18.142;2023-04-01T02:32:38;100338.50;;;-5.14;100.00
18987;BME280;9627;59.236;18.142;2023-04-01T02:35:06;100334.06;;;-5.12;100.00
18987;BME280;9627;59.236;18.142;2023-04-01T02:37:35;100335.31;;;-5.05;100.00
18987;BME280;9627;59.236;18.142;2023-04-01T02:40:03;100337.38;;;-5.10;100.00
18987;BME280;9627;59.236;18.142;2023-04-01T02:42:33;100333.16;;;-5.11;100.00
18987;BME280;9627;59.236;18.142;2023-04-01T02:45:00;100338.50;;;-5.14;100.00
18987;BME280;9627;59.236;18.142;2023-04-01T02:47:27;100340.06;;;-5.12;100.00
18987;BME280;9627;59.236;18.142;2023-04-01T02:49:54;100342.19;;;-5.04;100.00
18987;BME280;9627;59.236;18.142;2023-04-01T02:52:23;100337.53;;;-4.99;100.00
18987;BME280;9627;59.236;18.142;2023-04-01T02:54:50;100334.94;;;-4.99;100.00
18987;BME280;9627;59.236;18.142;2023-04-01T02:57:17;100333.47;;;-5.03;100.00
18987;BME280;9627;59.236;18.142;2023-04-01T02:59:46;100338.97;;;-5.08;100.00
18987;BME280;9627;59.236;18.142;2023-04-01T03:02:14;100346.41;;;-5.03;100.00
18987;BME280;9627;59.236;18.142;2023-04-01T03:04:41;100348.38;;;-5.07;100.00
18987;BME280;9627;59.236;18.142;2023-04-01T03:07:08;100355.97;;;-5.04;100.00
18987;BME280;9627;59.236;18.142;2023-04-01T03:09:35;100345.88;;;-5.08;100.00
18987;BME280;9627;59.236;18.142;2023-04-01T03:12:02;100353.00;;;-5.12;100.00
18987;BME280;9627;59.236;18.142;2023-04-01T03:14:29;100360.41;;;-5.06;100.00
18987;BME280;9627;59.236;18.142;2023-04-01T03:16:58;100357.25;;;-5.11;100.00
18987;BME280;9627;59.236;18.142;2023-04-01T03:19:25;100362.63;;;-5.14;100.00
18987;BME280;9627;59.236;18.142;2023-04-01T03:21:52;100359.94;;;-5.12;100.00
18987;BME280;9627;59.236;18.142;2023-04-01T03:24:19;100371.22;;;-5.13;100.00
18987;BME280;9627;59.236;18.142;2023-04-01T03:26:46;100353.28;;;-5.16;100.00
18987;BME280;9627;59.236;18.142;2023-04-01T03:29:13;100365.03;;;-5.25;100.00
18987;BME280;9627;59.236;18.142;2023-04-01T03:31:41;100365.13;;;-5.26;100.00
18987;BME280;9627;59.236;18.142;2023-04-01T03:34:10;100370.84;;;-5.21;100.00
18987;BME280;9627;59.236;18.142;2023-04-01T03:36:37;100371.75;;;-5.22;100.00
18987;BME280;9627;59.236;18.142;2023-04-01T03:39:04;100375.56;;;-5.28;100.00
18987;BME280;9627;59.236;18.142;2023-04-01T03:41:31;100376.50;;;-5.29;100.00
18987;BME280;9627;59.236;18.142;2023-04-01T03:43:58;100373.91;;;-5.29;100.00
18987;BME280;9627;59.236;18.142;2023-04-01T03:46:25;100381.56;;;-5.27;100.00
18987;BME280;9627;59.236;18.142;2023-04-01T03:48:52;100377.22;;;-5.27;100.00
18987;BME280;9627;59.236;18.142;2023-04-01T03:51:21;100379.34;;;-5.19;100.00
18987;BME280;9627;59.236;18.142;2023-04-01T03:53:48;100385.06;;;-5.14;100.00
18987;BME280;9627;59.236;18.142;2023-04-01T03:56:15;100384.16;;;-5.13;100.00
18987;BME280;9627;59.236;18.142;2023-04-01T03:58:43;100394.69;;;-5.16;100.00
18987;BME280;9627;59.236;18.142;2023-04-01T04:01:13;100394.63;;;-5.15;100.00
18987;BME280;9627;59.236;18.142;2023-04-01T04:03:40;100395.16;;;-5.10;100.00
18987;BME280;9627;59.236;18.142;2023-04-01T04:06:10;100391.34;;;-5.18;100.00
18987;BME280;9627;59.236;18.142;2023-04-01T04:08:39;100394.03;;;-5.20;100.00
18987;BME280;9627;59.236;18.142;2023-04-01T04:11:06;100395.53;;;-5.16;100.00
18987;BME280;9627;59.236;18.142;2023-04-01T04:13:34;100402.19;;;-5.12;100.00
18987;BME280;9627;59.236;18.142;2023-04-01T04:16:01;100399.88;;;-5.16;100.00
18987;BME280;9627;59.236;18.142;2023-04-01T04:18:28;100402.44;;;-5.16;100.00
18987;BME280;9627;59.236;18.142;2023-04-01T04:20:55;100408.56;;;-5.17;100.00
18987;BME280;9627;59.236;18.142;2023-04-01T04:23:22;100415.38;;;-5.16;100.00
18987;BME280;9627;59.236;18.142;2023-04-01T04:25:57;100416.59;;;-5.22;100.00
18987;BME280;9627;59.236;18.142;2023-04-01T04:28:25;100415.22;;;-5.13;100.00
18987;BME280;9627;59.236;18.142;2023-04-01T04:30:52;100423.25;;;-5.18;100.00
18987;BME280;9627;59.236;18.142;2023-04-01T04:33:20;100425.38;;;-5.10;100.00
18987;BME280;9627;59.236;18.142;2023-04-01T04:35:47;100426.03;;;-5.07;100.00
18987;BME280;9627;59.236;18.142;2023-04-01T04:38:14;100435.38;;;-4.90;100.00
18987;BME280;9627;59.236;18.142;2023-04-01T04:40:41;100430.25;;;-3.84;100.00
18987;BME280;9627;59.236;18.142;2023-04-01T04:43:11;100429.72;;;-3.24;100.00
18987;BME280;9627;59.236;18.142;2023-04-01T04:45:38;100432.41;;;-2.52;100.00
18987;BME280;9627;59.236;18.142;2023-04-01T04:48:06;100430.06;;;-1.73;100.00
18987;BME280;9627;59.236;18.142;2023-04-01T04:50:34;100429.00;;;-1.25;100.00
18987;BME280;9627;59.236;18.142;2023-04-01T04:53:01;100436.50;;;-0.98;100.00
18987;BME280;9627;59.236;18.142;2023-04-01T04:55:28;100440.00;;;-0.33;100.00
18987;BME280;9627;59.236;18.142;2023-04-01T04:57:55;100436.53;;;0.10;100.00
18987;BME280;9627;59.236;18.142;2023-04-01T05:00:24;100452.41;;;0.70;100.00
18987;BME280;9627;59.236;18.142;2023-04-01T05:02:51;100451.84;;;1.17;100.00
18987;BME280;9627;59.236;18.142;2023-04-01T05:05:18;100460.97;;;1.32;100.00
18987;BME280;9627;59.236;18.142;2023-04-01T05:07:44;100462.19;;;2.36;100.00
18987;BME280;9627;59.236;18.142;2023-04-01T05:10:12;100465.31;;;2.68;100.00
18987;BME280;9627;59.236;18.142;2023-04-01T05:12:39;100468.41;;;3.10;100.00
18987;BME280;9627;59.236;18.142;2023-04-01T05:15:06;100479.63;;;3.39;100.00
18987;BME280;9627;59.236;18.142;2023-04-01T05:17:35;100480.84;;;3.99;100.00
18987;BME280;9627;59.236;18.142;2023-04-01T05:20:02;100478.81;;;4.63;100.00
18987;BME280;9627;59.236;18.142;2023-04-01T05:22:29;100485.81;;;4.72;100.00
18987;BME280;9627;59.236;18.142;2023-04-01T05:24:56;100498.50;;;4.77;100.00
18987;BME280;9627;59.236;18.142;2023-04-01T05:27:23;100503.66;;;5.38;100.00
18987;BME280;9627;59.236;18.142;2023-04-01T05:29:50;100507.13;;;5.38;100.00
18987;BME280;9627;59.236;18.142;2023-04-01T05:32:17;100509.66;;;5.48;100.00
18987;BME280;9627;59.236;18.142;2023-04-01T05:34:46;100513.44;;;5.79;100.00
18987;BME280;9627;59.236;18.142;2023-04-01T05:37:13;100524.91;;;5.70;100.00
18987;BME280;9627;59.236;18.142;2023-04-01T05:39:40;100521.31;;;6.13;100.00
18987;BME280;9627;59.236;18.142;2023-04-01T05:42:07;100523.06;;;6.62;100.00
18987;BME280;9627;59.236;18.142;2023-04-01T05:44:34;100535.09;;;6.40;100.00
18987;BME280;9627;59.236;18.142;2023-04-01T05:47:01;100530.09;;;6.29;100.00
18987;BME280;9627;59.236;18.142;2023-04-01T05:49:28;100533.63;;;6.94;100.00
18987;BME280;9627;59.236;18.142;2023-04-01T05:51:57;100542.88;;;7.06;100.00
18987;BME280;9627;59.236;18.142;2023-04-01T05:54:24;100556.38;;;7.43;100.00
18987;BME280;9627;59.236;18.142;2023-04-01T05:56:51;100556.56;;;7.02;100.00
18987;BME280;9627;59.236;18.142;2023-04-01T05:59:18;100559.91;;;7.75;100.00
18987;BME280;9627;59.236;18.142;2023-04-01T06:01:45;100563.50;;;7.90;100.00
18987;BME280;9627;59.236;18.142;2023-04-01T06:04:13;100574.88;;;7.98;100.00
18987;BME280;9627;59.236;18.142;2023-04-01T06:06:41;100581.59;;;7.62;100.00
18987;BME280;9627;59.236;18.142;2023-04-01T06:09:13;100576.28;;;7.70;100.00
18987;BME280;9627;59.236;18.142;2023-04-01T06:11:42;100581.69;;;7.85;100.00
18987;BME280;9627;59.236;18.142;2023-04-01T06:14:17;100583.69;;;8.29;100.00
18987;BME280;9627;59.236;18.142;2023-04-01T06:16:54;100583.13;;;8.42;100.00
18987;BME280;9627;59.236;18.142;2023-04-01T06:19:27;100589.31;;;8.18;100.00
18987;BME280;9627;59.236;18.142;2023-04-01T06:22:02;100589.16;;;8.59;100.00
18987;BME280;9627;59.236;18.142;2023-04-01T06:24:41;100581.66;;;10.11;100.00
18987;BME280;9627;59.236;18.142;2023-04-01T06:27:13;100603.41;;;9.63;100.00
18987;BME280;9627;59.236;18.142;2023-04-01T06:30:00;100615.97;;;10.27;100.00
18987;BME280;9627;59.236;18.142;2023-04-01T06:32:37;100617.31;;;10.52;100.00
18987;BME280;9627;59.236;18.142;2023-04-01T06:40:56;100629.91;;;8.41;100.00
18987;BME280;9627;59.236;18.142;2023-04-01T06:43:25;100644.47;;;9.81;100.00
18987;BME280;9627;59.236;18.142;2023-04-01T06:46:00;100636.69;;;9.43;100.00
18987;BME280;9627;59.236;18.142;2023-04-01T06:48:33;100640.50;;;11.21;100.00
18987;BME280;9627;59.236;18.142;2023-04-01T06:51:08;100656.72;;;9.45;100.00
18987;BME280;9627;59.236;18.142;2023-04-01T06:53:38;100644.34;;;9.60;100.00
18987;BME280;9627;59.236;18.142;2023-04-01T06:56:09;100656.00;;;9.51;100.00
18987;BME280;9627;59.236;18.142;2023-04-01T06:58:38;100658.97;;;11.08;100.00
18987;BME280;9627;59.236;18.142;2023-04-01T07:01:08;100657.91;;;10.67;100.00
18987;BME280;9627;59.236;18.142;2023-04-01T07:03:37;100653.63;;;11.93;100.00
18987;BME280;9627;59.236;18.142;2023-04-01T07:06:08;100664.28;;;11.72;100.00
18987;BME280;9627;59.236;18.142;2023-04-01T07:08:38;100668.84;;;11.14;100.00
18987;BME280;9627;59.236;18.142;2023-04-01T07:11:06;100674.34;;;10.77;100.00
18987;BME280;9627;59.236;18.142;2023-04-01T07:13:39;100680.47;;;10.42;100.00
18987;BME280;9627;59.236;18.142;2023-04-01T07:16:11;100688.06;;;10.31;100.00
18987;BME280;9627;59.236;18.142;2023-04-01T07:18:41;100685.81;;;11.77;100.00
18987;BME280;9627;59.236;18.142;2023-04-01T07:21:13;100687.44;;;11.14;100.00
18987;BME280;9627;59.236;18.142;2023-04-01T07:23:44;100681.00;;;11.23;100.00
18987;BME280;9627;59.236;18.142;2023-04-01T07:26:15;100681.72;;;10.75;100.00
18987;BME280;9627;59.236;18.142;2023-04-01T07:28:44;100693.78;;;10.49;100.00
18987;BME280;9627;59.236;18.142;2023-04-01T07:31:15;100694.09;;;11.46;100.00
18987;BME280;9627;59.236;18.142;2023-04-01T07:33:46;100693.81;;;10.99;100.00
18987;BME280;9627;59.236;18.142;2023-04-01T07:36:20;100692.25;;;11.26;100.00
18987;BME280;9627;59.236;18.142;2023-04-01T07:38:51;100683.97;;;11.14;100.00
18987;BME280;9627;59.236;18.142;2023-04-01T07:41:23;100696.94;;;11.87;100.00
18987;BME280;9627;59.236;18.142;2023-04-01T07:43:59;100697.88;;;9.93;100.00
18987;BME280;9627;59.236;18.142;2023-04-01T07:46:33;100702.03;;;9.73;100.00
18987;BME280;9627;59.236;18.142;2023-04-01T07:49:05;100693.75;;;11.13;100.00
18987;BME280;9627;59.236;18.142;2023-04-01T07:51:35;100704.97;;;10.44;100.00
18987;BME280;9627;59.236;18.142;2023-04-01T07:54:08;100693.78;;;11.77;100.00
18987;BME280;9627;59.236;18.142;2023-04-01T07:56:40;100710.56;;;11.56;100.00
18987;BME280;9627;59.236;18.142;2023-04-01T07:59:13;100703.16;;;12.28;100.00
18987;BME280;9627;59.236;18.142;2023-04-01T08:01:46;100710.13;;;11.53;100.00
18987;BME280;9627;59.236;18.142;2023-04-01T08:07:02;100712.53;;;11.69;94.84
18987;BME280;9627;59.236;18.142;2023-04-01T08:09:38;100710.50;;;11.71;100.00
18987;BME280;9627;59.236;18.142;2023-04-01T08:12:13;100709.38;;;12.07;99.21
18987;BME280;9627;59.236;18.142;2023-04-01T08:14:51;100721.25;;;10.41;100.00
18987;BME280;9627;59.236;18.142;2023-04-01T08:17:22;100715.22;;;10.33;100.00
18987;BME280;9627;59.236;18.142;2023-04-01T08:19:56;100718.13;;;11.74;100.00
18987;BME280;9627;59.236;18.142;2023-04-01T08:22:28;100712.94;;;12.55;100.00
18987;BME280;9627;59.236;18.142;2023-04-01T08:24:58;100719.59;;;12.72;94.52
18987;BME280;9627;59.236;18.142;2023-04-01T08:27:28;100721.28;;;12.11;95.55
18987;BME280;9627;59.236;18.142;2023-04-01T08:30:01;100715.81;;;13.01;87.31
18987;BME280;9627;59.236;18.142;2023-04-01T08:32:32;100715.31;;;13.32;97.21
18987;BME280;9627;59.236;18.142;2023-04-01T08:35:05;100718.38;;;12.81;90.06
18987;BME280;9627;59.236;18.142;2023-04-01T08:37:35;100715.34;;;12.44;93.30
18987;BME280;9627;59.236;18.142;2023-04-01T08:40:09;100720.66;;;12.44;89.18
18987;BME280;9627;59.236;18.142;2023-04-01T08:42:46;100728.69;;;12.50;90.11
18987;BME280;9627;59.236;18.142;2023-04-01T08:45:24;100717.56;;;12.40;97.54
18987;BME280;9627;59.236;18.142;2023-04-01T08:53:25;100734.97;;;12.77;85.43
18987;BME280;9627;59.236;18.142;2023-04-01T08:56:02;100737.91;;;11.50;84.31
18987;BME280;9627;59.236;18.142;2023-04-01T08:58:44;100736.41;;;12.39;96.92
18987;BME280;9627;59.236;18.142;2023-04-01T09:01:20;100741.06;;;13.05;94.95
18987;BME280;9627;59.236;18.142;2023-04-01T09:03:58;100731.59;;;13.76;89.78
18987;BME280;9627;59.236;18.142;2023-04-01T09:06:32;100747.41;;;12.70;84.56
18987;BME280;9627;59.236;18.142;2023-04-01T09:09:09;100738.97;;;11.98;75.79
18987;BME280;9627;59.236;18.142;2023-04-01T09:11:58;100743.63;;;12.51;94.30
18987;BME280;9627;59.236;18.142;2023-04-01T09:14:35;100754.53;;;12.97;99.23
18987;BME280;9627;59.236;18.142;2023-04-01T09:17:14;100754.25;;;12.17;76.89
18987;BME280;9627;59.236;18.142;2023-04-01T09:19:50;100771.63;;;9.44;100.00
18987;BME280;9627;59.236;18.142;2023-04-01T09:25:21;100770.66;;;10.05;100.00
18987;BME280;9627;59.236;18.142;2023-04-01T09:27:54;100771.28;;;8.07;100.00
18987;BME280;9627;59.236;18.142;2023-04-01T09:30:32;100769.97;;;7.79;100.00
18987;BME280;9627;59.236;18.142;2023-04-01T09:33:15;100772.91;;;8.24;100.00
18987;BME280;9627;59.236;18.142;2023-04-01T09:35:47;100767.72;;;9.09;100.00
18987;BME280;9627;59.236;18.142;2023-04-01T09:38:19;100773.50;;;10.26;100.00
18987;BME280;9627;59.236;18.142;2023-04-01T09:40:48;100769.19;;;11.90;100.00
18987;BME280;9627;59.236;18.142;2023-04-01T09:43:25;100767.13;;;10.79;100.00
18987;BME280;9627;59.236;18.142;2023-04-01T09:45:55;100768.19;;;9.44;100.00
18987;BME280;9627;59.236;18.142;2023-04-01T09:51:17;100769.38;;;11.11;100.00
18987;BME280;9627;59.236;18.142;2023-04-01T09:53:54;100767.44;;;11.41;100.00
18987;BME280;9627;59.236;18.142;2023-04-01T09:56:27;100785.59;;;10.87;100.00
18987;BME280;9627;59.236;18.142;2023-04-01T09:59:16;100786.31;;;8.22;100.00
18987;BME280;9627;59.236;18.142;2023-04-01T10:02:01;100791.09;;;7.46;100.00
18987;BME280;9627;59.236;18.142;2023-04-01T10:04:48;100795.53;;;7.30;100.00
18987;BME280;9627;59.236;18.142;2023-04-01T10:07:32;100799.19;;;9.04;100.00
18987;BME280;9627;59.236;18.142;2023-04-01T10:10:19;100791.81;;;9.76;100.00
18987;BME280;9627;59.236;18.142;2023-04-01T10:12:57;100799.31;;;8.72;100.00
18987;BME280;9627;59.236;18.142;2023-04-01T10:15:40;100799.06;;;9.82;100.00
18987;BME280;9627;59.236;18.142;2023-04-01T10:21:16;100802.34;;;7.65;100.00
18987;BME280;9627;59.236;18.142;2023-04-01T10:29:39;100810.03;;;10.53;100.00
18987;BME280;9627;59.236;18.142;2023-04-01T10:32:30;100821.06;;;10.05;100.00
18987;BME280;9627;59.236;18.142;2023-04-01T10:35:10;100820.09;;;9.30;100.00
18987;BME280;9627;59.236;18.142;2023-04-01T10:40:36;100821.16;;;8.66;100.00
18987;BME280;9627;59.236;18.142;2023-04-01T10:43:09;100827.16;;;8.04;100.00
18987;BME280;9627;59.236;18.142;2023-04-01T10:45:53;100821.56;;;6.83;100.00
18987;BME280;9627;59.236;18.142;2023-04-01T10:51:12;100824.88;;;8.96;100.00
18987;BME280;9627;59.236;18.142;2023-04-01T10:53:46;100822.03;;;10.12;100.00
18987;BME280;9627;59.236;18.142;2023-04-01T10:59:11;100838.97;;;8.88;100.00
18987;BME280;9627;59.236;18.142;2023-04-01T11:15:32;100836.09;;;7.95;100.00
18987;BME280;9627;59.236;18.142;2023-04-01T11:23:45;100835.41;;;7.93;100.00
18987;BME280;9627;59.236;18.142;2023-04-01T11:26:20;100839.88;;;6.33;100.00
18987;BME280;9627;59.236;18.142;2023-04-01T11:29:07;100855.09;;;7.32;100.00
18987;BME280;9627;59.236;18.142;2023-04-01T11:31:42;100840.22;;;8.54;100.00
18987;BME280;9627;59.236;18.142;2023-04-01T11:36:59;100849.81;;;9.09;100.00
18987;BME280;9627;59.236;18.142;2023-04-01T11:39:32;100839.38;;;6.55;100.00
18987;BME280;9627;59.236;18.142;2023-04-01T11:42:03;100848.69;;;6.42;100.00
18987;BME280;9627;59.236;18.142;2023-04-01T11:44:37;100864.72;;;6.48;100.00
18987;BME280;9627;59.236;18.142;2023-04-01T11:50:02;100854.25;;;5.96;100.00
18987;BME280;9627;59.236;18.142;2023-04-01T11:52:40;100855.44;;;5.84;100.00
18987;BME280;9627;59.236;18.142;2023-04-01T11:55:18;100855.47;;;7.04;100.00
18987;BME280;9627;59.236;18.142;2023-04-01T11:57:51;100854.31;;;7.48;100.00
18987;BME280;9627;59.236;18.142;2023-04-01T12:00:25;100864.38;;;8.34;100.00
18987;BME280;9627;59.236;18.142;2023-04-01T12:03:02;100861.78;;;7.69;100.00
18987;BME280;9627;59.236;18.142;2023-04-01T12:05:39;100861.44;;;8.92;100.00
18987;BME280;9627;59.236;18.142;2023-04-01T12:08:11;100865.34;;;8.58;100.00
18987;BME280;9627;59.236;18.142;2023-04-01T12:10:44;100878.72;;;6.49;100.00
18987;BME280;9627;59.236;18.142;2023-04-01T12:13:18;100862.75;;;6.25;100.00
18987;BME280;9627;59.236;18.142;2023-04-01T12:18:34;100870.66;;;5.62;100.00
18987;BME280;9627;59.236;18.142;2023-04-01T12:21:07;100869.44;;;6.19;100.00
18987;BME280;9627;59.236;18.142;2023-04-01T12:23:55;100863.53;;;6.25;100.00
18987;BME280;9627;59.236;18.142;2023-04-01T12:26:30;100871.94;;;6.21;100.00
18987;BME280;9627;59.236;18.142;2023-04-01T12:29:06;100865.81;;;5.68;100.00
18987;BME280;9627;59.236;18.142;2023-04-01T12:31:37;100869.72;;;5.81;100.00
18987;BME280;9627;59.236;18.142;2023-04-01T12:37:02;100891.56;;;6.26;100.00
18987;BME280;9627;59.236;18.142;2023-04-01T12:39:38;100884.44;;;6.44;100.00
18987;BME280;9627;59.236;18.142;2023-04-01T12:42:13;100894.56;;;6.31;100.00
18987;BME280;9627;59.236;18.142;2023-04-01T12:44:54;100893.38;;;6.26;100.00
18987;BME280;9627;59.236;18.142;2023-04-01T12:47:32;100916.09;;;5.20;100.00
18987;BME280;9627;59.236;18.142;2023-04-01T12:50:10;100905.72;;;5.18;100.00
18987;BME280;9627;59.236;18.142;2023-04-01T12:52:52;100898.31;;;5.31;100.00
18987;BME280;9627;59.236;18.142;2023-04-01T12:55:37;100909.53;;;5.33;100.00
18987;BME280;9627;59.236;18.142;2023-04-01T13:00:58;100911.78;;;5.19;100.00
18987;BME280;9627;59.236;18.142;2023-04-01T13:03:35;100917.47;;;5.24;100.00
18987;BME280;9627;59.236;18.142;2023-04-01T13:06:14;100912.84;;;5.35;100.00
18987;BME280;9627;59.236;18.142;2023-04-01T13:08:48;100914.22;;;5.39;100.00
18987;BME280;9627;59.236;18.142;2023-04-01T13:11:20;100923.25;;;5.27;100.00
18987;BME280;9627;59.236;18.142;2023-04-01T13:16:37;100934.84;;;4.98;100.00
18987;BME280;9627;59.236;18.142;2023-04-01T13:19:07;100927.25;;;4.95;100.00
18987;BME280;9627;59.236;18.142;2023-04-01T13:21:39;100935.41;;;5.01;100.00
18987;BME280;9627;59.236;18.142;2023-04-01T13:24:15;100944.19;;;4.73;100.00
18987;BME280;9627;59.236;18.142;2023-04-01T13:26:50;100943.38;;;4.82;100.00
18987;BME280;9627;59.236;18.142;2023-04-01T13:29:20;100948.50;;;4.64;100.00
18987;BME280;9627;59.236;18.142;2023-04-01T13:31:55;100940.75;;;4.72;100.00
18987;BME280;9627;59.236;18.142;2023-04-01T13:34:32;100944.19;;;4.63;100.00
18987;BME280;9627;59.236;18.142;2023-04-01T13:37:08;100948.22;;;4.48;100.00
18987;BME280;9627;59.236;18.142;2023-04-01T13:39:54;100950.31;;;4.35;100.00
18987;BME280;9627;59.236;18.142;2023-04-01T13:42:24;100960.28;;;4.32;100.00
18987;BME280;9627;59.236;18.142;2023-04-01T13:44:54;100958.66;;;4.31;100.00
18987;BME280;9627;59.236;18.142;2023-04-01T13:50:14;100968.56;;;4.37;100.00
18987;BME280;9627;59.236;18.142;2023-04-01T13:52:56;100982.16;;;4.23;100.00
18987;BME280;9627;59.236;18.142;2023-04-01T13:55:32;100980.06;;;4.07;100.00
18987;BME280;9627;59.236;18.142;2023-04-01T13:58:09;100970.66;;;4.24;100.00
18987;BME280;9627;59.236;18.142;2023-04-01T14:00:42;100973.00;;;4.17;100.00
18987;BME280;9627;59.236;18.142;2023-04-01T14:03:26;100970.50;;;4.16;100.00
18987;BME280;9627;59.236;18.142;2023-04-01T14:05:56;100976.75;;;4.15;100.00
18987;BME280;9627;59.236;18.142;2023-04-01T14:08:40;100976.34;;;4.10;100.00
18987;BME280;9627;59.236;18.142;2023-04-01T14:11:17;100987.25;;;4.15;100.00
18987;BME280;9627;59.236;18.142;2023-04-01T14:13:51;100990.28;;;4.10;100.00
18987;BME280;9627;59.236;18.142;2023-04-01T14:16:28;100992.09;;;4.10;100.00
18987;BME280;9627;59.236;18.142;2023-04-01T14:19:03;100991.25;;;4.00;100.00
18987;BME280;9627;59.236;18.142;2023-04-01T14:21:36;100991.09;;;4.01;100.00
18987;BME280;9627;59.236;18.142;2023-04-01T14:24:18;100997.59;;;3.97;100.00
18987;BME280;9627;59.236;18.142;2023-04-01T14:29:41;100997.59;;;4.07;100.00
18987;BME280;9627;59.236;18.142;2023-04-01T14:32:13;101003.47;;;3.80;100.00
18987;BME280;9627;59.236;18.142;2023-04-01T14:34:59;101010.50;;;3.70;100.00
18987;BME280;9627;59.236;18.142;2023-04-01T14:40:19;101017.97;;;3.74;100.00